Lizella, Georgia
Current Conditions -  °F | °C
As of 2:53 AM on Friday 28 Nov 2014 (Local Time) from KMCN Reporting Station
Clear Clear  
Wind Chill: -1°   Ceiling: Unl
Heat Index: -1°   Visibility: 10mi
Dew Point: -3°   Wind: 3mph
Humidity: 88%   Direction: 290°WNW
Pressure: 30.37"   Gusts: NA
Location:  32.81°N, 83.82°W
Report Text: KMCN 280753Z AUTO 29003KT 10SM CLR M01/M03 A3037 RMK AO2 SLP285 T10111028 TSNO
Loading
Personal Weather Stations






























Interactive Weather Map New forecast layout! Learn more

10-Day Weather Forecast

Advertisements
Track Severe Weather on mobile